createdAt,value
2016-05-08T00:00:24.241Z,0
2016-05-08T00:01:24.400Z,0
2016-05-08T00:02:24.231Z,0
2016-05-08T00:03:24.374Z,0
2016-05-08T00:04:24.362Z,0
2016-05-08T00:05:24.177Z,0
2016-05-08T00:06:24.335Z,0
2016-05-08T00:07:24.323Z,0
2016-05-08T00:08:24.388Z,0
2016-05-08T00:09:24.312Z,0
2016-05-08T00:10:24.299Z,0
2016-05-08T00:11:24.271Z,0
2016-05-08T00:12:24.648Z,0
2016-05-08T00:13:24.104Z,0
2016-05-08T00:14:24.107Z,0
2016-05-08T00:15:24.234Z,0
2016-05-08T00:16:24.222Z,0
2016-05-08T00:17:24.225Z,0
2016-05-08T00:18:24.228Z,0
2016-05-08T00:19:24.198Z,0
2016-05-08T00:20:24.045Z,0
2016-05-08T00:21:24.172Z,0
2016-05-08T00:22:24.191Z,0
2016-05-08T00:23:24.117Z,0
2016-05-08T00:24:24.454Z,0
2016-05-08T00:25:24.004Z,0
2016-05-08T00:26:24.131Z,0
2016-05-08T00:27:23.962Z,0
2016-05-08T00:28:24.120Z,0
2016-05-08T00:29:23.936Z,0
2016-05-08T00:30:24.110Z,0
2016-05-08T00:31:23.926Z,0
2016-05-08T00:32:23.913Z,0
2016-05-08T00:33:23.915Z,0
2016-05-08T00:34:24.042Z,0
2016-05-08T00:35:24.248Z,0
2016-05-08T00:36:23.861Z,0
2016-05-08T00:37:24.036Z,0
2016-05-08T00:38:24.007Z,0
2016-05-08T00:39:23.525Z,0
2016-05-08T00:40:23.825Z,0
2016-05-08T00:41:23.967Z,0
2016-05-08T00:42:24.439Z,0
2016-05-08T00:43:23.958Z,0
2016-05-08T00:44:23.820Z,0
2016-05-08T00:45:23.775Z,0
2016-05-08T00:46:23.466Z,0
2016-05-08T00:47:23.906Z,0
2016-05-08T00:48:23.909Z,0
2016-05-08T00:49:23.911Z,0
2016-05-08T00:50:23.883Z,0
2016-05-08T00:51:23.869Z,0
2016-05-08T00:52:23.857Z,0
2016-05-08T00:53:23.703Z,0
2016-05-08T00:54:23.863Z,0
2016-05-08T00:55:23.818Z,0
2016-05-08T00:56:23.821Z,0
2016-05-08T00:57:23.823Z,0
2016-05-08T00:58:23.795Z,0
2016-05-08T00:59:23.781Z,0
2016-05-08T01:00:23.769Z,0
2016-05-08T01:01:23.616Z,0
2016-05-08T01:02:23.618Z,0
2016-05-08T01:03:23.589Z,0
2016-05-08T01:04:23.765Z,0
2016-05-08T01:05:23.564Z,0
2016-05-08T01:06:23.707Z,0
2016-05-08T01:07:23.695Z,0
2016-05-08T01:08:23.540Z,0
2016-05-08T01:09:23.699Z,0
2016-05-08T01:10:23.655Z,0
2016-05-08T01:11:23.673Z,0
2016-05-08T01:12:23.567Z,0
2016-05-08T01:13:23.633Z,0
2016-05-08T01:14:23.322Z,0
2016-05-08T01:15:23.466Z,0
2016-05-08T01:16:23.609Z,0
2016-05-08T01:17:23.440Z,0
2016-05-08T01:18:23.583Z,0
2016-05-08T01:19:23.570Z,0
2016-05-08T01:20:23.401Z,0
2016-05-08T01:21:23.388Z,0
2016-05-08T01:22:23.391Z,0
2016-05-08T01:23:23.519Z,0
2016-05-08T01:24:23.521Z,0
2016-05-08T01:25:23.353Z,0
2016-05-08T01:26:23.527Z,0
2016-05-08T01:27:23.202Z,0
2016-05-08T01:28:23.469Z,0
2016-05-08T01:29:23.473Z,0
2016-05-08T01:30:23.460Z,0
2016-05-08T01:31:23.291Z,0
2016-05-08T01:32:23.277Z,0
2016-05-08T01:33:23.422Z,0
2016-05-08T01:34:23.408Z,0
2016-05-08T01:35:23.255Z,0
2016-05-08T01:36:23.070Z,0
2016-05-08T01:37:23.369Z,0
2016-05-08T01:38:23.356Z,0
2016-05-08T01:39:23.344Z,0
2016-05-08T01:40:23.190Z,0
2016-05-08T01:41:23.334Z,0
2016-05-08T01:42:23.617Z,0
2016-05-08T01:43:23.167Z,0
2016-05-08T01:44:23.138Z,0
2016-05-08T01:45:23.282Z,0
2016-05-08T01:46:23.284Z,0
2016-05-08T01:47:23.271Z,0
2016-05-08T01:48:23.087Z,0
2016-05-08T01:49:23.245Z,0
2016-05-08T01:50:23.233Z,0
2016-05-08T01:51:23.064Z,0
2016-05-08T01:52:23.206Z,0
2016-05-08T01:53:23.225Z,0
2016-05-08T01:54:23.181Z,0
2016-05-08T01:55:23.028Z,0
2016-05-08T01:56:23.155Z,0
2016-05-08T01:57:23.470Z,0
2016-05-08T01:58:23.144Z,0
2016-05-08T01:59:23.132Z,0
2016-05-08T02:00:23.135Z,0
2016-05-08T02:01:22.950Z,0
2016-05-08T02:02:23.109Z,0
2016-05-08T02:03:23.080Z,0
2016-05-08T02:04:22.926Z,0
2016-05-08T02:05:23.069Z,0
2016-05-08T02:06:23.041Z,0
2016-05-08T02:07:23.044Z,0
2016-05-08T02:08:23.032Z,0
2016-05-08T02:09:23.034Z,0
2016-05-08T02:10:23.004Z,0
2016-05-08T02:11:22.993Z,0
2016-05-08T02:12:23.761Z,0
2016-05-08T02:13:22.966Z,0
2016-05-08T02:14:22.501Z,0
2016-05-08T02:15:22.956Z,0
2016-05-08T02:16:22.803Z,0
2016-05-08T02:17:22.945Z,0
2016-05-08T02:18:22.918Z,0
2016-05-08T02:19:22.748Z,0
2016-05-08T02:20:22.751Z,0
2016-05-08T02:21:22.878Z,0
2016-05-08T02:22:22.897Z,0
2016-05-08T02:23:22.868Z,0
2016-05-08T02:24:22.840Z,0
2016-05-08T02:25:22.827Z,0
2016-05-08T02:26:22.830Z,0
2016-05-08T02:27:23.175Z,0
2016-05-08T02:28:22.631Z,0
2016-05-08T02:29:22.791Z,0
2016-05-08T02:30:22.778Z,0
2016-05-08T02:31:22.764Z,0
2016-05-08T02:32:22.752Z,0
2016-05-08T02:33:22.739Z,0
2016-05-08T02:34:22.726Z,0
2016-05-08T02:35:22.916Z,0
2016-05-08T02:36:22.544Z,0
2016-05-08T02:37:22.718Z,0
2016-05-08T02:38:22.690Z,0
2016-05-08T02:39:22.521Z,0
2016-05-08T02:40:22.554Z,0
2016-05-08T02:41:22.651Z,0
2016-05-08T02:42:22.796Z,0
2016-05-08T02:43:22.548Z,0
2016-05-08T02:44:22.583Z,0
2016-05-08T02:45:22.790Z,0
2016-05-08T02:46:22.793Z,0
2016-05-08T02:47:22.823Z,0
2016-05-08T02:48:22.688Z,0
2016-05-08T02:49:22.832Z,0
2016-05-08T02:50:22.524Z,0
2016-05-08T02:51:22.684Z,0
2016-05-08T02:52:22.743Z,0
2016-05-08T02:53:22.830Z,0
2016-05-08T02:54:22.840Z,0
2016-05-08T02:55:22.661Z,0
2016-05-08T02:56:22.841Z,0
2016-05-08T02:57:22.520Z,0
2016-05-08T02:58:22.790Z,0
2016-05-08T02:59:22.795Z,0
2016-05-08T03:00:22.644Z,0
2016-05-08T03:01:22.633Z,0
2016-05-08T03:02:22.606Z,0
2016-05-08T03:03:22.593Z,0
2016-05-08T03:04:22.737Z,0
2016-05-08T03:05:22.429Z,0
2016-05-08T03:06:22.714Z,0
2016-05-08T03:07:22.701Z,0
2016-05-08T03:08:22.689Z,0
2016-05-08T03:09:22.520Z,0
2016-05-08T03:10:22.523Z,0
2016-05-08T03:11:22.666Z,0
2016-05-08T03:12:23.279Z,0
2016-05-08T03:13:22.657Z,0
2016-05-08T03:14:22.612Z,0
2016-05-08T03:15:22.599Z,0
2016-05-08T03:16:22.445Z,0
2016-05-08T03:17:22.590Z,0
2016-05-08T03:18:22.420Z,0
2016-05-08T03:19:22.423Z,0
2016-05-08T03:20:22.550Z,0
2016-05-08T03:21:22.538Z,0
2016-05-08T03:22:22.509Z,0
2016-05-08T03:23:22.512Z,0
2016-05-08T03:24:22.483Z,0
2016-05-08T03:25:22.329Z,0
2016-05-08T03:26:22.488Z,0
2016-05-08T03:27:22.726Z,0
2016-05-08T03:28:22.306Z,0
2016-05-08T03:29:22.434Z,0
2016-05-08T03:30:22.420Z,0
2016-05-08T03:31:22.268Z,0
2016-05-08T03:32:22.394Z,0
2016-05-08T03:33:22.226Z,0
2016-05-08T03:34:22.369Z,0
2016-05-08T03:35:22.371Z,0
2016-05-08T03:36:22.359Z,0
2016-05-08T03:37:22.221Z,0
2016-05-08T03:38:22.333Z,0
2016-05-08T03:39:22.319Z,0
2016-05-08T03:40:22.135Z,0
2016-05-08T03:41:22.138Z,0
2016-05-08T03:42:22.015Z,0
2016-05-08T03:43:22.253Z,0
2016-05-08T03:44:22.099Z,0
2016-05-08T03:45:22.086Z,0
2016-05-08T03:46:22.245Z,0
2016-05-08T03:47:22.216Z,0
2016-05-08T03:48:22.188Z,5
2016-05-08T03:49:22.191Z,5
2016-05-08T03:50:22.037Z,5
2016-05-08T03:51:22.009Z,5
2016-05-08T03:52:22.183Z,5
2016-05-08T03:53:22.170Z,5
2016-05-08T03:54:21.970Z,5
2016-05-08T03:55:21.801Z,5
2016-05-08T03:56:22.100Z,5
2016-05-08T03:57:21.822Z,5
2016-05-08T03:58:22.075Z,5
2016-05-08T03:59:21.905Z,10
2016-05-08T04:00:22.048Z,10
2016-05-08T04:01:22.036Z,10
2016-05-08T04:02:21.867Z,10
2016-05-08T04:03:22.009Z,10
2016-05-08T04:04:21.997Z,10
2016-05-08T04:05:21.999Z,10
2016-05-08T04:06:21.971Z,10
2016-05-08T04:07:21.817Z,15
2016-05-08T04:08:21.805Z,15
2016-05-08T04:09:21.775Z,15
2016-05-08T04:10:21.763Z,15
2016-05-08T04:11:21.610Z,15
2016-05-08T04:12:21.863Z,15
2016-05-08T04:13:21.880Z,15
2016-05-08T04:14:21.868Z,20
2016-05-08T04:15:21.729Z,20
2016-05-08T04:16:21.904Z,20
2016-05-08T04:17:21.844Z,20
2016-05-08T04:18:21.660Z,20
2016-05-08T04:19:21.834Z,20
2016-05-08T04:20:21.665Z,20
2016-05-08T04:21:21.793Z,25
2016-05-08T04:22:21.780Z,25
2016-05-08T04:23:21.751Z,25
2016-05-08T04:24:21.753Z,25
2016-05-08T04:25:21.740Z,25
2016-05-08T04:26:21.415Z,25
2016-05-08T04:27:22.043Z,25
2016-05-08T04:28:21.702Z,30
2016-05-08T04:29:21.704Z,30
2016-05-08T04:30:21.691Z,30
2016-05-08T04:31:21.663Z,30
2016-05-08T04:32:21.495Z,30
2016-05-08T04:33:21.481Z,30
2016-05-08T04:34:21.483Z,30
2016-05-08T04:35:21.830Z,30
2016-05-08T04:36:21.597Z,35
2016-05-08T04:37:21.789Z,35
2016-05-08T04:38:21.572Z,35
2016-05-08T04:39:21.403Z,35
2016-05-08T04:40:21.546Z,35
2016-05-08T04:41:21.534Z,35
2016-05-08T04:42:21.521Z,35
2016-05-08T04:43:21.523Z,40
2016-05-08T04:44:21.494Z,40
2016-05-08T04:45:21.483Z,40
2016-05-08T04:46:21.484Z,40
2016-05-08T04:47:21.300Z,40
2016-05-08T04:48:21.302Z,40
2016-05-08T04:49:21.429Z,40
2016-05-08T04:50:21.276Z,40
2016-05-08T04:51:21.108Z,45
2016-05-08T04:52:21.391Z,45
2016-05-08T04:53:21.394Z,45
2016-05-08T04:54:21.381Z,45
2016-05-08T04:55:21.368Z,45
2016-05-08T04:56:21.339Z,45
2016-05-08T04:57:21.327Z,45
2016-05-08T04:58:21.204Z,45
2016-05-08T04:59:21.159Z,50
2016-05-08T05:00:21.287Z,50
2016-05-08T05:01:21.290Z,50
2016-05-08T05:02:21.278Z,50
2016-05-08T05:03:21.250Z,50
2016-05-08T05:04:21.095Z,50
2016-05-08T05:05:21.223Z,50
2016-05-08T05:06:20.913Z,50
2016-05-08T05:07:21.213Z,50
2016-05-08T05:08:21.044Z,55
2016-05-08T05:09:21.047Z,55
2016-05-08T05:10:20.893Z,55
2016-05-08T05:11:21.177Z,55
2016-05-08T05:12:21.242Z,55
2016-05-08T05:13:21.166Z,55
2016-05-08T05:14:21.122Z,55
2016-05-08T05:15:21.110Z,55
2016-05-08T05:16:20.955Z,55
2016-05-08T05:17:21.083Z,55
2016-05-08T05:18:21.071Z,60
2016-05-08T05:19:21.073Z,60
2016-05-08T05:20:21.045Z,60
2016-05-08T05:21:21.032Z,60
2016-05-08T05:22:21.035Z,60
2016-05-08T05:23:21.021Z,60
2016-05-08T05:24:20.884Z,60
2016-05-08T05:25:20.684Z,60
2016-05-08T05:26:20.687Z,60
2016-05-08T05:27:21.032Z,60
2016-05-08T05:28:20.957Z,65
2016-05-08T05:29:20.787Z,65
2016-05-08T05:30:20.759Z,65
2016-05-08T05:31:20.950Z,65
2016-05-08T05:32:20.906Z,65
2016-05-08T05:33:20.580Z,65
2016-05-08T05:34:20.723Z,65
2016-05-08T05:35:20.648Z,65
2016-05-08T05:36:20.698Z,65
2016-05-08T05:37:20.700Z,65
2016-05-08T05:38:20.843Z,70
2016-05-08T05:39:20.830Z,70
2016-05-08T05:40:20.661Z,70
2016-05-08T05:41:20.648Z,70
2016-05-08T05:42:20.620Z,70
2016-05-08T05:43:20.778Z,70
2016-05-08T05:44:20.765Z,70
2016-05-08T05:45:20.768Z,70
2016-05-08T05:46:20.741Z,70
2016-05-08T05:47:20.727Z,70
2016-05-08T05:48:20.714Z,70
2016-05-08T05:49:20.544Z,75
2016-05-08T05:50:20.547Z,75
2016-05-08T05:51:20.690Z,75
2016-05-08T05:52:20.507Z,75
2016-05-08T05:53:20.649Z,75
2016-05-08T05:54:20.652Z,75
2016-05-08T05:55:20.639Z,75
2016-05-08T05:56:20.470Z,75
2016-05-08T05:57:20.612Z,75
2016-05-08T05:58:20.631Z,75
2016-05-08T05:59:20.587Z,75
2016-05-08T06:00:20.574Z,80
2016-05-08T06:01:20.592Z,80
2016-05-08T06:02:20.392Z,80
2016-05-08T06:03:20.536Z,80
2016-05-08T06:04:20.554Z,80
2016-05-08T06:05:20.510Z,80
2016-05-08T06:06:20.184Z,80
2016-05-08T06:07:20.186Z,80
2016-05-08T06:08:20.486Z,80
2016-05-08T06:09:20.489Z,80
2016-05-08T06:10:20.460Z,80
2016-05-08T06:11:20.339Z,80
2016-05-08T06:12:20.325Z,80
2016-05-08T06:13:20.359Z,80
2016-05-08T06:14:20.425Z,80
2016-05-08T06:15:20.411Z,80
2016-05-08T06:16:20.242Z,80
2016-05-08T06:17:20.385Z,80
2016-05-08T06:18:20.388Z,80
2016-05-08T06:19:20.360Z,80
2016-05-08T06:20:20.191Z,80
2016-05-08T06:21:20.349Z,80
2016-05-08T06:22:20.321Z,85
2016-05-08T06:23:20.323Z,85
2016-05-08T06:24:20.310Z,85
2016-05-08T06:25:19.985Z,85
2016-05-08T06:26:20.143Z,85
2016-05-08T06:27:20.288Z,85
2016-05-08T06:28:20.259Z,85
2016-05-08T06:29:20.246Z,85
2016-05-08T06:30:20.248Z,85
2016-05-08T06:31:20.236Z,90
2016-05-08T06:32:20.239Z,90
2016-05-08T06:33:20.053Z,90
2016-05-08T06:34:20.212Z,90
2016-05-08T06:35:20.809Z,90
2016-05-08T06:36:20.187Z,90
2016-05-08T06:37:20.158Z,90
2016-05-08T06:38:20.020Z,90
2016-05-08T06:39:20.147Z,90
2016-05-08T06:40:20.119Z,90
2016-05-08T06:41:20.122Z,90
2016-05-08T06:42:20.562Z,95
2016-05-08T06:43:20.112Z,95
2016-05-08T06:44:20.099Z,95
2016-05-08T06:45:20.102Z,95
2016-05-08T06:46:20.073Z,95
2016-05-08T06:47:20.060Z,95
2016-05-08T06:48:20.063Z,95
2016-05-08T06:49:20.081Z,95
2016-05-08T06:50:19.865Z,95
2016-05-08T06:51:20.055Z,95
2016-05-08T06:52:20.027Z,95
2016-05-08T06:53:19.702Z,100
2016-05-08T06:54:20.001Z,100
2016-05-08T06:55:20.004Z,100
2016-05-08T06:56:19.678Z,100
2016-05-08T06:57:19.806Z,100
2016-05-08T06:58:19.979Z,100
2016-05-08T06:59:19.795Z,100
2016-05-08T07:00:19.954Z,100
2016-05-08T07:01:19.942Z,105
2016-05-08T07:02:19.913Z,105
2016-05-08T07:03:19.915Z,105
2016-05-08T07:04:19.903Z,105
2016-05-08T07:05:19.906Z,105
2016-05-08T07:06:19.876Z,105
2016-05-08T07:07:19.739Z,105
2016-05-08T07:08:19.866Z,105
2016-05-08T07:09:19.853Z,105
2016-05-08T07:10:19.841Z,110
2016-05-08T07:11:19.858Z,110
2016-05-08T07:12:19.846Z,110
2016-05-08T07:13:19.786Z,110
2016-05-08T07:14:19.820Z,110
2016-05-08T07:15:19.808Z,110
2016-05-08T07:16:19.794Z,115
2016-05-08T07:17:19.625Z,115
2016-05-08T07:18:19.799Z,115
2016-05-08T07:19:19.615Z,115
2016-05-08T07:20:19.774Z,115
2016-05-08T07:21:19.760Z,115
2016-05-08T07:22:19.592Z,115
2016-05-08T07:23:19.579Z,120
2016-05-08T07:24:19.816Z,120
2016-05-08T07:25:19.757Z,170
2016-05-08T07:26:19.727Z,460
2016-05-08T07:27:19.558Z,615
2016-05-08T07:28:19.905Z,510
2016-05-08T07:29:19.532Z,525
2016-05-08T07:30:19.690Z,610
2016-05-08T07:31:19.679Z,730
2016-05-08T07:32:19.665Z,825
2016-05-08T07:33:19.653Z,740
2016-05-08T07:34:19.656Z,560
2016-05-08T07:35:19.704Z,520
2016-05-08T07:36:19.645Z,560
2016-05-08T07:37:19.632Z,585
2016-05-08T07:38:19.479Z,625
2016-05-08T07:39:19.325Z,675
2016-05-08T07:40:19.624Z,510
2016-05-08T07:41:19.612Z,310
2016-05-08T07:42:19.614Z,330
2016-05-08T07:43:19.601Z,360
2016-05-08T07:44:19.572Z,370
2016-05-08T07:45:19.575Z,385
2016-05-08T07:46:19.625Z,370
2016-05-08T07:47:19.566Z,225
2016-05-08T07:48:19.583Z,190
2016-05-08T07:49:19.413Z,215
2016-05-08T07:50:19.573Z,245
2016-05-08T07:51:19.560Z,275
2016-05-08T07:52:19.547Z,290
2016-05-08T07:53:19.535Z,185
2016-05-08T07:54:19.537Z,150
2016-05-08T07:55:19.555Z,155
2016-05-08T07:56:19.371Z,170
2016-05-08T07:57:19.513Z,190
2016-05-08T07:58:19.610Z,200
2016-05-08T07:59:19.519Z,155
2016-05-08T08:00:19.365Z,155
2016-05-08T08:01:19.509Z,155
2016-05-08T08:02:19.340Z,160
2016-05-08T08:03:19.498Z,165
2016-05-08T08:04:19.486Z,180
2016-05-08T08:05:19.473Z,180
2016-05-08T08:06:19.320Z,190
2016-05-08T08:07:19.462Z,195
2016-05-08T08:08:19.465Z,665
2016-05-08T08:09:19.453Z,1350
2016-05-08T08:10:19.455Z,1530
2016-05-08T08:11:19.145Z,1500
2016-05-08T08:12:19.304Z,1475
2016-05-08T08:13:20.088Z,1435
2016-05-08T08:14:19.434Z,1325
2016-05-08T08:15:19.453Z,1180
2016-05-08T08:16:19.425Z,1155
2016-05-08T08:17:19.427Z,1235
2016-05-08T08:18:19.274Z,1310
2016-05-08T08:19:19.433Z,1420
2016-05-08T08:20:19.279Z,1555
2016-05-08T08:21:19.266Z,1605
2016-05-08T08:22:19.269Z,1555
2016-05-08T08:23:19.427Z,1450
2016-05-08T08:24:19.415Z,1330
2016-05-08T08:25:19.433Z,1265
2016-05-08T08:26:19.420Z,1265
2016-05-08T08:27:19.423Z,1345
2016-05-08T08:28:19.269Z,1455
2016-05-08T08:29:19.444Z,1520
2016-05-08T08:30:19.477Z,1510
2016-05-08T08:31:19.418Z,1430
2016-05-08T08:32:19.421Z,1365
2016-05-08T08:33:19.423Z,1415
2016-05-08T08:34:19.129Z,1525
2016-05-08T08:35:19.412Z,1660
2016-05-08T08:36:19.634Z,1770
2016-05-08T08:37:19.434Z,1750
2016-05-08T08:38:19.437Z,1625
2016-05-08T08:39:19.423Z,1485
2016-05-08T08:40:19.442Z,1460
2016-05-08T08:41:19.445Z,1585
2016-05-08T08:42:19.292Z,1715
2016-05-08T08:43:19.341Z,1785
2016-05-08T08:44:19.296Z,1820
2016-05-08T08:45:19.299Z,1840
2016-05-08T08:46:19.458Z,1865
2016-05-08T08:47:19.477Z,1880
2016-05-08T08:48:19.479Z,1885
2016-05-08T08:49:19.310Z,1630
2016-05-08T08:50:19.297Z,1630
2016-05-08T08:51:19.316Z,1300
2016-05-08T08:52:19.474Z,1270
2016-05-08T08:53:19.305Z,1020
2016-05-08T08:54:19.479Z,1280
2016-05-08T08:55:19.498Z,320
2016-05-08T08:56:19.172Z,1255
2016-05-08T08:57:19.487Z,985
2016-05-08T08:58:19.538Z,700
2016-05-08T08:59:19.509Z,1780
2016-05-08T09:00:19.355Z,1740
2016-05-08T09:01:19.483Z,1530
2016-05-08T09:02:19.501Z,1390
2016-05-08T09:03:19.191Z,695
2016-05-08T09:04:19.350Z,640
2016-05-08T09:05:19.509Z,600
2016-05-08T09:06:19.496Z,785
2016-05-08T09:07:19.358Z,835
2016-05-08T09:08:19.362Z,795
2016-05-08T09:09:19.364Z,830
2016-05-08T09:10:19.350Z,795
2016-05-08T09:11:19.510Z,870
2016-05-08T09:12:19.528Z,1020
2016-05-08T09:13:19.406Z,955
2016-05-08T09:14:19.517Z,840
2016-05-08T09:15:19.723Z,575
2016-05-08T09:16:19.508Z,715
2016-05-08T09:17:19.525Z,1055
2016-05-08T09:18:19.356Z,1655
2016-05-08T09:19:19.374Z,1535
2016-05-08T09:20:19.519Z,1275
2016-05-08T09:21:19.365Z,660
2016-05-08T09:22:19.524Z,850
2016-05-08T09:23:19.527Z,1250
2016-05-08T09:24:19.372Z,1245
2016-05-08T09:25:19.360Z,735
2016-05-08T09:26:19.550Z,480
2016-05-08T09:27:19.209Z,590
2016-05-08T09:28:19.899Z,625
2016-05-08T09:29:19.371Z,540
2016-05-08T09:30:19.374Z,1305
2016-05-08T09:31:19.391Z,1305
2016-05-08T09:32:19.519Z,1545
2016-05-08T09:33:19.600Z,1530
2016-05-08T09:34:19.369Z,1335
2016-05-08T09:35:19.356Z,1305
2016-05-08T09:36:19.201Z,1055
2016-05-08T09:37:19.548Z,920
2016-05-08T09:38:25.692Z,925
2016-05-08T09:39:19.523Z,605
2016-05-08T09:40:19.369Z,540
2016-05-08T09:41:19.528Z,570
2016-05-08T09:42:19.531Z,440
2016-05-08T09:43:19.830Z,775
2016-05-08T09:44:19.598Z,680
2016-05-08T09:45:19.553Z,305
2016-05-08T09:46:19.525Z,245
2016-05-08T09:47:19.529Z,385
2016-05-08T09:48:19.531Z,475
2016-05-08T09:49:19.534Z,950
2016-05-08T09:50:19.521Z,1140
2016-05-08T09:51:19.227Z,1440
2016-05-08T09:52:19.527Z,1465
2016-05-08T09:53:19.513Z,1430
2016-05-08T09:54:19.360Z,1185
2016-05-08T09:55:19.518Z,1120
2016-05-08T09:56:19.522Z,770
2016-05-08T09:57:19.524Z,685
2016-05-08T09:58:19.902Z,440
2016-05-08T09:59:19.217Z,1000
2016-05-08T10:00:19.532Z,370
2016-05-08T10:01:19.394Z,305
2016-05-08T10:02:19.506Z,445
2016-05-08T10:03:19.368Z,330
2016-05-08T10:04:19.527Z,1225
2016-05-08T10:05:19.530Z,665
2016-05-08T10:06:19.220Z,515
2016-05-08T10:07:19.363Z,1030
2016-05-08T10:08:19.538Z,780
2016-05-08T10:09:19.509Z,605
2016-05-08T10:10:19.512Z,735
2016-05-08T10:11:19.514Z,1420
2016-05-08T10:12:19.345Z,2080
2016-05-08T10:13:21.615Z,1385
2016-05-08T10:14:19.366Z,1620
2016-05-08T10:15:19.510Z,1540
2016-05-08T10:16:19.356Z,1910
2016-05-08T10:17:19.375Z,1515
2016-05-08T10:18:19.347Z,2180
2016-05-08T10:19:19.411Z,1395
2016-05-08T10:20:19.367Z,2180
2016-05-08T10:21:19.511Z,1610
2016-05-08T10:22:19.372Z,2100
2016-05-08T10:23:19.719Z,2220
2016-05-08T10:24:19.420Z,2230
2016-05-08T10:25:19.533Z,2140
2016-05-08T10:26:19.519Z,2110
2016-05-08T10:27:19.522Z,2160
2016-05-08T10:28:21.165Z,2200
2016-05-08T10:29:19.371Z,2205
2016-05-08T10:30:19.389Z,2175
2016-05-08T10:31:19.533Z,2165
2016-05-08T10:32:19.222Z,2165
2016-05-08T10:33:19.382Z,2145
2016-05-08T10:34:31.557Z,2095
2016-05-08T10:35:19.559Z,2085
2016-05-08T10:36:19.608Z,2145
2016-05-08T10:37:19.407Z,2185
2016-05-08T10:38:19.551Z,2205
2016-05-08T10:39:19.570Z,2195
2016-05-08T10:40:19.415Z,2215
2016-05-08T10:41:19.434Z,2250
2016-05-08T10:42:19.437Z,2235
2016-05-08T10:43:19.440Z,2220
2016-05-08T10:44:19.426Z,2220
2016-05-08T10:45:19.586Z,2215
2016-05-08T10:46:19.292Z,2225
2016-05-08T10:47:19.607Z,2230
2016-05-08T10:48:19.453Z,2205
2016-05-08T10:49:19.612Z,2235
2016-05-08T10:50:19.615Z,2300
2016-05-08T10:51:19.603Z,2295
2016-05-08T10:52:19.636Z,2235
2016-05-08T10:53:19.623Z,2170
2016-05-08T10:54:19.641Z,2085
2016-05-08T10:55:19.159Z,2010
2016-05-08T10:56:19.647Z,1970
2016-05-08T10:57:19.525Z,1845
2016-05-08T10:58:20.074Z,1670
2016-05-08T10:59:19.499Z,1580
2016-05-08T11:00:19.658Z,1535
2016-05-08T11:01:19.675Z,1580
2016-05-08T11:02:19.678Z,1795
2016-05-08T11:03:19.555Z,2020
2016-05-08T11:04:19.527Z,2175
2016-05-08T11:05:19.685Z,2305
2016-05-08T11:06:19.532Z,2265
2016-05-08T11:07:19.692Z,2105
2016-05-08T11:08:19.710Z,1930
2016-05-08T11:09:19.712Z,1730
2016-05-08T11:10:19.699Z,1620
2016-05-08T11:11:19.562Z,1590
2016-05-08T11:12:19.752Z,1685
2016-05-08T11:13:19.723Z,1875
2016-05-08T11:14:19.726Z,2015
2016-05-08T11:15:19.588Z,2100
2016-05-08T11:16:19.591Z,2080
2016-05-08T11:17:19.610Z,2055
2016-05-08T11:18:19.596Z,2145
2016-05-08T11:19:19.756Z,2235
2016-05-08T11:20:19.773Z,2275
2016-05-08T11:21:19.792Z,2315
2016-05-08T11:22:19.794Z,2320
2016-05-08T11:23:19.766Z,2320
2016-05-08T11:24:19.784Z,2345
2016-05-08T11:25:19.787Z,2355
2016-05-08T11:26:19.477Z,2335
2016-05-08T11:27:19.652Z,2320
2016-05-08T11:28:19.920Z,2295
2016-05-08T11:29:19.829Z,2285
2016-05-08T11:30:19.660Z,2260
2016-05-08T11:31:19.818Z,2200
2016-05-08T11:32:19.822Z,2150
2016-05-08T11:33:19.669Z,2155
2016-05-08T11:34:19.671Z,2240
2016-05-08T11:35:19.689Z,2285
2016-05-08T11:36:19.863Z,2255
2016-05-08T11:37:19.710Z,2170
2016-05-08T11:38:19.854Z,2075
2016-05-08T11:39:19.871Z,1985
2016-05-08T11:40:19.859Z,1945
2016-05-08T11:41:19.721Z,1975
2016-05-08T11:42:19.895Z,1990
2016-05-08T11:43:19.773Z,1965
2016-05-08T11:44:19.588Z,1840
2016-05-08T11:45:19.762Z,1755
2016-05-08T11:46:19.593Z,1790
2016-05-08T11:47:19.595Z,1915
2016-05-08T11:48:19.475Z,2050
2016-05-08T11:49:19.848Z,2180
2016-05-08T11:50:20.033Z,2245
2016-05-08T11:51:20.078Z,2265
2016-05-08T11:52:20.137Z,2250
2016-05-08T11:53:20.005Z,2255
2016-05-08T11:54:20.195Z,2295
2016-05-08T11:55:20.196Z,2320
2016-05-08T11:56:20.074Z,2290
2016-05-08T11:57:20.263Z,2210
2016-05-08T11:58:20.571Z,2115
2016-05-08T11:59:20.110Z,2065
2016-05-08T12:00:20.133Z,2125
2016-05-08T12:01:20.282Z,2190
2016-05-08T12:02:20.306Z,2245
2016-05-08T12:03:20.312Z,2270
2016-05-08T12:04:20.300Z,2235
2016-05-08T12:05:20.336Z,2240
2016-05-08T12:06:20.309Z,2255
2016-05-08T12:07:20.173Z,2250
2016-05-08T12:08:20.333Z,2240
2016-05-08T12:09:20.352Z,2205
2016-05-08T12:10:20.341Z,2185
2016-05-08T12:11:20.359Z,2190
2016-05-08T12:12:20.379Z,2195
2016-05-08T12:13:20.225Z,2205
2016-05-08T12:14:20.383Z,2230
2016-05-08T12:15:20.215Z,2255
2016-05-08T12:16:20.264Z,2255
2016-05-08T12:17:20.251Z,2265
2016-05-08T12:18:20.394Z,2260
2016-05-08T12:19:20.414Z,2260
2016-05-08T12:20:20.245Z,2260
2016-05-08T12:21:20.403Z,2270
2016-05-08T12:22:20.422Z,2260
2016-05-08T12:23:20.408Z,2270
2016-05-08T12:24:20.270Z,2250
2016-05-08T12:25:20.413Z,2235
2016-05-08T12:26:20.432Z,2205
2016-05-08T12:27:20.450Z,2180
2016-05-08T12:28:20.297Z,2190
2016-05-08T12:29:20.455Z,2210
2016-05-08T12:30:20.458Z,2210
2016-05-08T12:31:20.461Z,2215
2016-05-08T12:32:20.479Z,2210
2016-05-08T12:33:20.466Z,2195
2016-05-08T12:34:20.328Z,2185
2016-05-08T12:35:20.332Z,2180
2016-05-08T12:36:20.725Z,2175
2016-05-08T12:37:20.540Z,2170
2016-05-08T12:38:20.511Z,2135
2016-05-08T12:39:20.342Z,2125
2016-05-08T12:40:20.720Z,2100
2016-05-08T12:41:20.519Z,2055
2016-05-08T12:42:20.521Z,2005
2016-05-08T12:43:21.821Z,2050
2016-05-08T12:44:20.527Z,2130
2016-05-08T12:45:20.576Z,2200
2016-05-08T12:46:20.532Z,2190
2016-05-08T12:47:20.395Z,2165
2016-05-08T12:48:20.537Z,2170
2016-05-08T12:49:20.759Z,2170
2016-05-08T12:50:20.402Z,2155
2016-05-08T12:51:20.405Z,2130
2016-05-08T12:52:20.424Z,2040
2016-05-08T12:53:20.786Z,1810
2016-05-08T12:54:20.586Z,1515
2016-05-08T12:55:20.588Z,1280
2016-05-08T12:56:20.591Z,1365
2016-05-08T12:57:20.608Z,1535
2016-05-08T12:58:20.314Z,1760
2016-05-08T12:59:20.630Z,1970
2016-05-08T13:00:20.633Z,2070
2016-05-08T13:01:20.323Z,2140
2016-05-08T13:02:20.622Z,2165
2016-05-08T13:03:20.657Z,2075
2016-05-08T13:04:20.502Z,2040
2016-05-08T13:05:20.662Z,2075
2016-05-08T13:06:20.493Z,2135
2016-05-08T13:07:20.588Z,2170
2016-05-08T13:08:20.654Z,2180
2016-05-08T13:09:20.673Z,2140
2016-05-08T13:10:20.676Z,2010
2016-05-08T13:11:20.678Z,1800
2016-05-08T13:12:20.680Z,1610
2016-05-08T13:13:20.902Z,1485
2016-05-08T13:14:20.732Z,1585
2016-05-08T13:15:20.548Z,1810
2016-05-08T13:16:20.706Z,1995
2016-05-08T13:17:20.726Z,2085
2016-05-08T13:18:20.712Z,2070
2016-05-08T13:19:20.403Z,2030
2016-05-08T13:20:20.405Z,2045
2016-05-08T13:21:20.736Z,2080
2016-05-08T13:22:20.739Z,2115
2016-05-08T13:23:20.741Z,2105
2016-05-08T13:24:20.744Z,2055
2016-05-08T13:25:20.747Z,2005
2016-05-08T13:26:20.764Z,1950
2016-05-08T13:27:20.767Z,1920
2016-05-08T13:28:20.474Z,1915
2016-05-08T13:29:20.617Z,1920
2016-05-08T13:30:20.635Z,1905
2016-05-08T13:31:20.778Z,1905
2016-05-08T13:32:20.781Z,1900
2016-05-08T13:33:20.799Z,1930
2016-05-08T13:34:20.786Z,1975
2016-05-08T13:35:20.805Z,1985
2016-05-08T13:36:20.682Z,1965
2016-05-08T13:37:21.888Z,1960
2016-05-08T13:38:20.813Z,1965
2016-05-08T13:39:20.504Z,1965
2016-05-08T13:40:20.849Z,1935
2016-05-08T13:41:20.852Z,1910
2016-05-08T13:42:20.683Z,1895
2016-05-08T13:43:20.998Z,1835
2016-05-08T13:44:20.563Z,1745
2016-05-08T13:45:20.863Z,1710
2016-05-08T13:46:20.709Z,1700
2016-05-08T13:47:20.868Z,1725
2016-05-08T13:48:20.730Z,1800
2016-05-08T13:49:20.873Z,1845
2016-05-08T13:50:20.737Z,1870
2016-05-08T13:51:20.894Z,1840
2016-05-08T13:52:20.882Z,1805
2016-05-08T13:53:20.900Z,1780
2016-05-08T13:54:20.903Z,1755
2016-05-08T13:55:20.906Z,1760
2016-05-08T13:56:20.767Z,1795
2016-05-08T13:57:20.927Z,1860
2016-05-08T13:58:21.351Z,1890